createdAt,value
2018-07-26T00:00:10.039Z,1.90
2018-07-26T00:02:37.573Z,1.50
2018-07-26T00:05:05.136Z,1.60
2018-07-26T00:07:32.697Z,1.60
2018-07-26T00:10:00.179Z,1.70
2018-07-26T00:12:27.740Z,2.37
2018-07-26T00:14:55.287Z,2.23
2018-07-26T00:17:22.831Z,1.87
2018-07-26T00:19:50.311Z,1.80
2018-07-26T00:22:17.818Z,1.20
2018-07-26T00:24:45.336Z,1.90
2018-07-26T00:27:12.862Z,1.67
2018-07-26T00:29:40.383Z,1.83
2018-07-26T00:32:07.935Z,1.73
2018-07-26T00:34:35.428Z,1.40
2018-07-26T00:37:02.992Z,1.30
2018-07-26T00:39:31.502Z,1.97
2018-07-26T00:41:58.965Z,1.33
2018-07-26T00:44:26.477Z,1.67
2018-07-26T00:46:54.020Z,2.07
2018-07-26T00:49:21.554Z,2.20
2018-07-26T00:51:51.147Z,1.33
2018-07-26T00:54:18.658Z,1.23
2018-07-26T00:56:46.143Z,1.57
2018-07-26T00:59:13.658Z,1.50
2018-07-26T01:01:41.178Z,1.97
2018-07-26T01:04:08.742Z,1.50
2018-07-26T01:06:36.387Z,1.57
2018-07-26T01:09:07.396Z,1.50
2018-07-26T01:11:34.962Z,1.40
2018-07-26T01:14:03.106Z,2.23
2018-07-26T01:16:30.705Z,1.50
2018-07-26T01:18:58.303Z,1.37
2018-07-26T01:21:26.068Z,1.87
2018-07-26T01:23:53.636Z,1.57
2018-07-26T01:26:21.164Z,1.60
2018-07-26T01:28:48.782Z,1.63
2018-07-26T01:31:16.445Z,1.77
2018-07-26T01:33:44.066Z,1.60
2018-07-26T01:36:11.664Z,2.00
2018-07-26T01:38:39.225Z,1.57
2018-07-26T01:41:06.813Z,1.93
2018-07-26T01:43:47.865Z,1.57
2018-07-26T01:46:15.833Z,1.87
2018-07-26T01:48:43.805Z,1.70
2018-07-26T01:51:12.269Z,1.70
2018-07-26T01:53:39.951Z,2.60
2018-07-26T01:56:08.612Z,1.90
2018-07-26T01:58:36.376Z,2.20
2018-07-26T02:01:04.332Z,1.90
2018-07-26T02:03:31.974Z,1.33
2018-07-26T02:05:59.988Z,1.90
2018-07-26T02:08:27.680Z,1.40
2018-07-26T02:10:55.444Z,1.20
2018-07-26T02:13:23.041Z,1.30
2018-07-26T02:15:50.865Z,1.60
2018-07-26T02:18:18.456Z,1.17
2018-07-26T02:20:46.020Z,1.50
2018-07-26T02:23:13.612Z,1.70
2018-07-26T02:25:41.247Z,1.20
2018-07-26T02:28:08.841Z,1.80
2018-07-26T02:30:36.426Z,1.90
2018-07-26T02:33:03.989Z,1.70
2018-07-26T02:35:31.561Z,1.87
2018-07-26T02:37:59.141Z,1.97
2018-07-26T02:40:26.761Z,2.03
2018-07-26T02:42:54.328Z,2.20
2018-07-26T02:45:21.975Z,1.87
2018-07-26T02:47:49.527Z,2.00
2018-07-26T02:50:17.150Z,2.07
2018-07-26T02:52:44.744Z,1.90
2018-07-26T02:55:12.536Z,1.63
2018-07-26T02:57:40.094Z,2.30
2018-07-26T03:00:07.911Z,2.00
2018-07-26T03:02:35.465Z,2.00
2018-07-26T03:05:03.052Z,1.83
2018-07-26T03:07:30.629Z,2.10
2018-07-26T03:09:58.221Z,2.10
2018-07-26T03:12:26.179Z,1.57
2018-07-26T03:14:53.755Z,1.83
2018-07-26T03:17:21.393Z,1.80
2018-07-26T03:19:49.443Z,1.30
2018-07-26T03:22:17.062Z,1.10
2018-07-26T03:24:44.601Z,1.67
2018-07-26T03:27:12.167Z,1.10
2018-07-26T03:29:39.773Z,1.43
2018-07-26T03:32:07.745Z,2.30
2018-07-26T03:34:35.349Z,1.63
2018-07-26T03:37:03.046Z,1.93
2018-07-26T03:39:30.637Z,2.40
2018-07-26T03:41:58.213Z,2.70
2018-07-26T03:44:25.772Z,2.40
2018-07-26T03:46:53.356Z,1.83
2018-07-26T03:49:20.959Z,1.67
2018-07-26T03:51:48.655Z,1.87
2018-07-26T03:54:16.184Z,2.33
2018-07-26T03:56:43.809Z,2.40
2018-07-26T03:59:11.424Z,2.17
2018-07-26T04:01:39.035Z,2.13
2018-07-26T04:04:07.543Z,2.20
2018-07-26T04:06:35.213Z,2.50
2018-07-26T04:09:05.397Z,1.90
2018-07-26T04:11:33.005Z,1.80
2018-07-26T04:14:00.747Z,2.17
2018-07-26T04:16:28.328Z,2.23
2018-07-26T04:18:56.009Z,1.53
2018-07-26T04:21:23.708Z,1.70
2018-07-26T04:23:51.449Z,1.97
2018-07-26T04:26:19.008Z,1.27
2018-07-26T04:28:46.705Z,2.10
2018-07-26T04:31:14.341Z,1.57
2018-07-26T04:33:42.097Z,2.07
2018-07-26T04:36:09.743Z,1.80
2018-07-26T04:38:37.446Z,1.53
2018-07-26T04:41:05.027Z,2.40
2018-07-26T04:43:32.788Z,3.80
2018-07-26T04:46:00.470Z,1.97
2018-07-26T04:48:28.118Z,1.90
2018-07-26T04:50:56.103Z,2.30
2018-07-26T04:53:24.017Z,2.57
2018-07-26T04:55:51.829Z,1.60
2018-07-26T04:58:19.436Z,2.40
2018-07-26T05:00:47.124Z,3.80
2018-07-26T05:03:14.769Z,3.90
2018-07-26T05:05:42.425Z,3.37
2018-07-26T05:08:10.150Z,2.87
2018-07-26T05:10:37.955Z,2.60
2018-07-26T05:13:05.875Z,3.20
2018-07-26T05:15:33.714Z,3.87
2018-07-26T05:18:01.355Z,3.23
2018-07-26T05:20:29.493Z,3.70
2018-07-26T05:22:57.671Z,4.07
2018-07-26T05:25:25.366Z,4.47
2018-07-26T05:27:53.153Z,5.30
2018-07-26T05:30:20.673Z,4.70
2018-07-26T05:32:48.376Z,5.70
2018-07-26T05:35:19.322Z,4.60
2018-07-26T05:37:46.923Z,5.00
2018-07-26T05:40:14.697Z,4.40
2018-07-26T05:42:42.560Z,5.90
2018-07-26T05:45:13.358Z,4.97
2018-07-26T05:47:41.062Z,4.87
2018-07-26T05:50:09.037Z,4.80
2018-07-26T05:52:37.304Z,4.20
2018-07-26T05:55:05.929Z,4.93
2018-07-26T05:57:33.676Z,4.30
2018-07-26T06:00:01.372Z,4.03
2018-07-26T06:02:28.980Z,5.27
2018-07-26T06:04:56.648Z,4.40
2018-07-26T06:07:24.390Z,4.10
2018-07-26T06:09:52.068Z,4.77
2018-07-26T06:12:19.685Z,4.53
2018-07-26T06:14:47.307Z,3.97
2018-07-26T06:17:14.949Z,3.00
2018-07-26T06:19:46.166Z,3.60
2018-07-26T06:22:15.151Z,3.27
2018-07-26T06:24:43.379Z,3.60
2018-07-26T06:27:11.405Z,3.50
2018-07-26T06:29:39.080Z,4.00
2018-07-26T06:32:06.937Z,3.60
2018-07-26T06:34:35.549Z,3.70
2018-07-26T06:37:03.185Z,3.53
2018-07-26T06:39:30.890Z,3.87
2018-07-26T06:41:58.588Z,3.40
2018-07-26T06:44:26.188Z,3.07
2018-07-26T06:46:53.793Z,2.90
2018-07-26T06:49:21.422Z,2.90
2018-07-26T06:51:49.011Z,3.20
2018-07-26T06:54:16.658Z,3.30
2018-07-26T06:56:44.432Z,3.13
2018-07-26T06:59:12.132Z,3.23
2018-07-26T07:01:40.909Z,2.87
2018-07-26T07:04:08.523Z,2.90
2018-07-26T07:06:36.235Z,2.73
2018-07-26T07:09:07.130Z,2.87
2018-07-26T07:11:34.732Z,2.73
2018-07-26T07:14:02.444Z,2.97
2018-07-26T07:16:30.039Z,2.70
2018-07-26T07:18:57.716Z,3.07
2018-07-26T07:21:25.472Z,2.40
2018-07-26T07:23:53.188Z,2.30
2018-07-26T07:26:20.985Z,2.33
2018-07-26T07:28:48.765Z,1.90
2018-07-26T07:31:16.452Z,2.13
2018-07-26T07:33:47.897Z,2.13
2018-07-26T07:36:15.608Z,2.57
2018-07-26T07:38:43.592Z,2.40
2018-07-26T07:41:11.424Z,2.33
2018-07-26T07:43:39.125Z,2.13
2018-07-26T07:46:06.778Z,2.40
2018-07-26T07:49:37.664Z,2.20
2018-07-26T07:52:05.455Z,2.10
2018-07-26T07:54:33.321Z,2.10
2018-07-26T07:57:01.035Z,2.30
2018-07-26T07:59:32.154Z,2.30
2018-07-26T08:01:59.973Z,2.20
2018-07-26T08:04:28.991Z,2.40
2018-07-26T08:06:56.994Z,2.30
2018-07-26T08:09:24.650Z,2.20
2018-07-26T08:11:52.307Z,2.08
2018-07-26T08:14:20.837Z,1.82
2018-07-26T08:16:49.175Z,1.95
2018-07-26T08:19:16.889Z,2.20
2018-07-26T08:21:46.020Z,2.00
2018-07-26T08:24:13.780Z,1.77
2018-07-26T08:26:41.423Z,1.98
2018-07-26T08:29:09.216Z,1.77
2018-07-26T08:31:36.873Z,1.80
2018-07-26T08:34:04.805Z,2.00
2018-07-26T08:36:32.444Z,2.35
2018-07-26T08:39:00.101Z,1.70
2018-07-26T08:41:27.801Z,1.92
2018-07-26T08:43:55.453Z,1.87
2018-07-26T08:46:23.112Z,1.90
2018-07-26T08:48:50.787Z,1.95
2018-07-26T08:51:18.546Z,2.35
2018-07-26T08:53:46.194Z,1.95
2018-07-26T08:56:13.852Z,1.82
2018-07-26T08:58:41.519Z,1.40
2018-07-26T09:01:13.387Z,2.00
2018-07-26T09:03:40.940Z,1.98
2018-07-26T09:06:08.837Z,1.72
2018-07-26T09:08:36.457Z,2.00
2018-07-26T09:11:04.078Z,2.12
2018-07-26T09:13:31.864Z,1.70
2018-07-26T09:15:59.416Z,1.60
2018-07-26T09:18:27.242Z,2.00
2018-07-26T09:20:55.125Z,1.65
2018-07-26T09:23:22.793Z,1.87
2018-07-26T09:25:50.424Z,2.05
2018-07-26T09:28:18.019Z,2.00
2018-07-26T09:30:45.600Z,1.70
2018-07-26T09:33:13.270Z,1.80
2018-07-26T09:35:40.794Z,2.00
2018-07-26T09:38:08.542Z,1.95
2018-07-26T09:40:36.166Z,1.72
2018-07-26T09:43:03.929Z,1.77
2018-07-26T09:45:32.231Z,1.70
2018-07-26T09:47:59.843Z,1.72
2018-07-26T09:50:27.566Z,1.82
2018-07-26T09:52:55.187Z,1.70
2018-07-26T09:55:23.032Z,2.02
2018-07-26T09:57:50.673Z,1.95
2018-07-26T10:00:24.099Z,1.90
2018-07-26T10:02:51.676Z,1.75
2018-07-26T10:05:19.297Z,1.77
2018-07-26T10:07:46.876Z,1.92
2018-07-26T10:10:14.441Z,2.22
2018-07-26T10:12:42.077Z,1.75
2018-07-26T10:15:10.705Z,1.90
2018-07-26T10:17:38.335Z,2.17
2018-07-26T10:20:07.063Z,1.85
2018-07-26T10:22:34.868Z,1.60
2018-07-26T10:25:02.468Z,1.57
2018-07-26T10:27:30.013Z,1.42
2018-07-26T10:29:57.624Z,1.75
2018-07-26T10:32:25.277Z,1.90
2018-07-26T10:34:52.868Z,2.05
2018-07-26T10:37:20.499Z,2.00
2018-07-26T10:39:48.089Z,2.30
2018-07-26T10:42:15.736Z,1.87
2018-07-26T10:44:43.324Z,1.67
2018-07-26T10:47:10.900Z,1.55
2018-07-26T10:49:38.519Z,1.75
2018-07-26T10:52:06.209Z,1.67
2018-07-26T10:54:33.801Z,1.80
2018-07-26T10:57:01.405Z,2.08
2018-07-26T10:59:29.043Z,2.12
2018-07-26T11:01:56.774Z,1.90
2018-07-26T11:04:24.346Z,1.92
2018-07-26T11:06:52.051Z,2.17
2018-07-26T11:09:19.724Z,2.08
2018-07-26T11:11:47.348Z,2.10
2018-07-26T11:14:14.969Z,1.95
2018-07-26T11:16:42.545Z,1.82
2018-07-26T11:19:10.166Z,1.80
2018-07-26T11:21:37.774Z,2.00
2018-07-26T11:24:06.116Z,2.27
2018-07-26T11:26:33.718Z,2.10
2018-07-26T11:29:01.348Z,2.40
2018-07-26T11:31:28.976Z,2.10
2018-07-26T11:33:56.648Z,2.00
2018-07-26T11:36:24.266Z,2.17
2018-07-26T11:38:51.881Z,2.10
2018-07-26T11:41:19.461Z,2.10
2018-07-26T11:43:50.399Z,2.45
2018-07-26T11:46:17.990Z,1.90
2018-07-26T11:48:45.594Z,2.02
2018-07-26T11:51:13.228Z,2.35
2018-07-26T11:53:40.824Z,2.20
2018-07-26T11:56:08.474Z,2.83
2018-07-26T11:58:36.131Z,2.35
2018-07-26T12:01:03.900Z,2.08
2018-07-26T12:03:31.471Z,2.17
2018-07-26T12:05:59.058Z,2.40
2018-07-26T12:08:27.038Z,2.62
2018-07-26T12:10:54.781Z,2.75
2018-07-26T12:13:22.509Z,2.72
2018-07-26T12:15:50.123Z,2.72
2018-07-26T12:18:17.728Z,2.50
2018-07-26T12:20:45.389Z,2.42
2018-07-26T12:23:13.089Z,2.52
2018-07-26T12:25:40.737Z,2.60
2018-07-26T12:28:08.347Z,2.70
2018-07-26T12:30:35.957Z,2.87
2018-07-26T12:33:03.562Z,3.47
2018-07-26T12:35:31.141Z,3.12
2018-07-26T12:37:58.685Z,3.10
2018-07-26T12:40:26.268Z,3.22
2018-07-26T12:42:54.291Z,2.67
2018-07-26T12:45:21.941Z,3.15
2018-07-26T12:47:49.520Z,2.70
2018-07-26T12:50:17.212Z,2.77
2018-07-26T12:52:44.847Z,2.95
2018-07-26T12:55:12.521Z,3.00
2018-07-26T12:57:40.144Z,3.15
2018-07-26T13:00:07.940Z,2.45
2018-07-26T13:02:35.609Z,3.12
2018-07-26T13:05:03.249Z,2.60
2018-07-26T13:07:30.994Z,2.95
2018-07-26T13:09:58.773Z,2.85
2018-07-26T13:12:26.492Z,2.72
2018-07-26T13:14:54.205Z,3.42
2018-07-26T13:17:21.764Z,2.95
2018-07-26T13:19:49.368Z,3.22
2018-07-26T13:22:16.960Z,3.12
2018-07-26T13:24:44.827Z,2.60
2018-07-26T13:27:12.470Z,2.20
2018-07-26T13:29:40.075Z,2.40
2018-07-26T13:32:08.321Z,2.60
2018-07-26T13:34:35.956Z,2.52
2018-07-26T13:37:03.524Z,2.77
2018-07-26T13:39:31.240Z,2.90
2018-07-26T13:41:58.842Z,2.72
2018-07-26T13:44:26.464Z,2.80
2018-07-26T13:46:54.081Z,2.60
2018-07-26T13:49:21.673Z,2.58
2018-07-26T13:51:49.252Z,2.60
2018-07-26T13:54:17.060Z,2.70
2018-07-26T13:56:44.685Z,2.77
2018-07-26T13:59:12.277Z,2.90
2018-07-26T14:01:39.897Z,2.70
2018-07-26T14:04:07.502Z,2.85
2018-07-26T14:06:35.084Z,2.30
2018-07-26T14:09:03.036Z,2.70
2018-07-26T14:11:30.642Z,2.25
2018-07-26T14:13:58.213Z,2.22
2018-07-26T14:16:25.802Z,2.33
2018-07-26T14:18:53.397Z,2.22
2018-07-26T14:21:20.996Z,2.50
2018-07-26T14:23:53.221Z,2.52
2018-07-26T14:26:21.013Z,2.10
2018-07-26T14:28:48.642Z,2.37
2018-07-26T14:31:16.332Z,2.65
2018-07-26T14:33:43.905Z,2.47
2018-07-26T14:36:11.584Z,2.35
2018-07-26T14:38:42.245Z,2.27
2018-07-26T14:41:09.872Z,2.17
2018-07-26T14:43:37.723Z,2.40
2018-07-26T14:46:05.413Z,2.60
2018-07-26T14:48:33.085Z,2.33
2018-07-26T14:51:00.696Z,2.62
2018-07-26T14:53:28.372Z,2.20
2018-07-26T14:55:56.013Z,2.30
2018-07-26T14:58:23.663Z,1.98
2018-07-26T15:00:51.318Z,2.40
2018-07-26T15:03:18.890Z,2.00
2018-07-26T15:05:46.532Z,2.30
2018-07-26T15:08:14.168Z,2.60
2018-07-26T15:10:41.814Z,2.90
2018-07-26T15:13:09.424Z,2.47
2018-07-26T15:15:37.106Z,2.40
2018-07-26T15:18:04.997Z,2.50
2018-07-26T15:20:32.724Z,2.40
2018-07-26T15:23:00.368Z,2.40
2018-07-26T15:25:27.928Z,2.20
2018-07-26T15:27:56.666Z,2.22
2018-07-26T15:30:24.309Z,2.72
2018-07-26T15:32:53.022Z,2.40
2018-07-26T15:35:20.649Z,2.05
2018-07-26T15:37:48.883Z,2.10
2018-07-26T15:40:16.985Z,2.55
2018-07-26T15:42:44.583Z,2.45
2018-07-26T15:45:12.428Z,2.58
2018-07-26T15:47:40.081Z,2.52
2018-07-26T15:50:07.743Z,2.50
2018-07-26T15:52:36.193Z,2.47
2018-07-26T15:55:03.868Z,2.65
2018-07-26T15:57:31.557Z,2.77
2018-07-26T15:59:59.344Z,2.40
2018-07-26T16:02:27.172Z,2.45
2018-07-26T16:04:54.781Z,2.37
2018-07-26T16:07:22.372Z,2.47
2018-07-26T16:09:49.962Z,2.25
2018-07-26T16:12:17.546Z,2.62
2018-07-26T16:14:45.294Z,2.80
2018-07-26T16:17:13.052Z,2.52
2018-07-26T16:19:40.919Z,2.27
2018-07-26T16:22:08.828Z,2.92
2018-07-26T16:24:36.456Z,2.65
2018-07-26T16:27:04.173Z,2.30
2018-07-26T16:29:31.695Z,2.60
2018-07-26T16:31:59.296Z,2.65
2018-07-26T16:34:26.926Z,2.60
2018-07-26T16:36:54.869Z,2.80
2018-07-26T16:39:22.477Z,2.40
2018-07-26T16:41:50.111Z,2.20
2018-07-26T16:44:17.700Z,2.30
2018-07-26T16:46:45.316Z,2.15
2018-07-26T16:49:12.912Z,2.50
2018-07-26T16:51:40.476Z,2.30
2018-07-26T16:54:11.891Z,2.40
2018-07-26T16:56:39.696Z,2.30
2018-07-26T16:59:07.298Z,2.50
2018-07-26T17:01:35.077Z,2.27
2018-07-26T17:04:02.756Z,2.60
2018-07-26T17:06:30.353Z,2.33
2018-07-26T17:08:57.945Z,2.90
2018-07-26T17:11:25.677Z,3.00
2018-07-26T17:13:53.249Z,2.62
2018-07-26T17:16:21.494Z,2.92
2018-07-26T17:18:49.622Z,2.62
2018-07-26T17:21:17.220Z,3.05
2018-07-26T17:23:44.866Z,2.40
2018-07-26T17:26:12.393Z,3.17
2018-07-26T17:28:40.041Z,2.90
2018-07-26T17:31:07.773Z,2.87
2018-07-26T17:33:35.480Z,2.87
2018-07-26T17:36:03.188Z,2.52
2018-07-26T17:38:30.746Z,2.40
2018-07-26T17:40:58.417Z,2.58
2018-07-26T17:43:26.093Z,2.75
2018-07-26T17:45:53.718Z,3.15
2018-07-26T17:48:21.276Z,3.05
2018-07-26T17:50:48.877Z,2.85
2018-07-26T17:53:16.470Z,2.50
2018-07-26T17:55:44.090Z,2.67
2018-07-26T17:58:11.719Z,2.25
2018-07-26T18:00:39.410Z,2.40
2018-07-26T18:03:07.117Z,2.30
2018-07-26T18:05:34.732Z,2.92
2018-07-26T18:08:02.372Z,2.40
2018-07-26T18:10:30.014Z,2.85
2018-07-26T18:12:57.670Z,2.70
2018-07-26T18:15:25.273Z,2.70
2018-07-26T18:17:52.877Z,3.10
2018-07-26T18:20:20.525Z,2.50
2018-07-26T18:22:48.818Z,2.60
2018-07-26T18:25:16.469Z,2.80
2018-07-26T18:27:44.069Z,2.62
2018-07-26T18:30:11.753Z,2.97
2018-07-26T18:32:39.396Z,2.80
2018-07-26T18:35:07.302Z,2.43
2018-07-26T18:37:35.007Z,2.30
2018-07-26T18:40:02.710Z,2.20
2018-07-26T18:42:30.352Z,2.10
2018-07-26T18:44:57.980Z,1.63
2018-07-26T18:47:25.585Z,1.87
2018-07-26T18:49:53.208Z,2.10
2018-07-26T18:52:20.853Z,1.87
2018-07-26T18:54:48.521Z,2.00
2018-07-26T18:57:16.260Z,2.43
2018-07-26T18:59:43.901Z,2.30
2018-07-26T19:02:11.608Z,2.10
2018-07-26T19:04:39.209Z,1.90
2018-07-26T19:07:07.042Z,1.97
2018-07-26T19:09:34.680Z,2.50
2018-07-26T19:12:03.430Z,2.50
2018-07-26T19:14:31.160Z,3.00
2018-07-26T19:16:58.761Z,2.80
2018-07-26T19:19:26.398Z,2.23
2018-07-26T19:21:54.032Z,2.23
2018-07-26T19:24:21.818Z,2.47
2018-07-26T19:26:49.397Z,2.43
2018-07-26T19:29:17.011Z,2.40
2018-07-26T19:31:44.596Z,2.50
2018-07-26T19:34:12.197Z,2.47
2018-07-26T19:36:40.133Z,2.60
2018-07-26T19:39:09.985Z,2.83
2018-07-26T19:41:37.620Z,2.70
2018-07-26T19:44:05.336Z,2.80
2018-07-26T19:46:32.923Z,2.30
2018-07-26T19:49:00.448Z,2.50
2018-07-26T19:51:28.080Z,3.07
2018-07-26T19:53:55.882Z,2.60
2018-07-26T19:56:23.544Z,2.60
2018-07-26T19:58:51.547Z,2.90
2018-07-26T20:01:19.181Z,2.70
2018-07-26T20:03:47.045Z,2.97
2018-07-26T20:06:14.632Z,3.10
2018-07-26T20:08:42.316Z,3.50
2018-07-26T20:11:10.027Z,3.50
2018-07-26T20:13:37.755Z,3.07
2018-07-26T20:16:05.424Z,3.10
2018-07-26T20:18:33.041Z,3.03
2018-07-26T20:21:00.616Z,3.30
2018-07-26T20:23:28.407Z,3.27
2018-07-26T20:25:56.068Z,2.67
2018-07-26T20:28:23.677Z,2.87
2018-07-26T20:30:51.453Z,2.90
2018-07-26T20:33:19.056Z,2.87
2018-07-26T20:35:46.705Z,3.00
2018-07-26T20:38:14.332Z,2.57
2018-07-26T20:40:41.980Z,2.50
2018-07-26T20:43:09.568Z,2.97
2018-07-26T20:45:37.215Z,2.67
2018-07-26T20:48:05.078Z,2.80
2018-07-26T20:50:32.740Z,3.33
2018-07-26T20:53:00.337Z,2.80
2018-07-26T20:55:27.979Z,3.20
2018-07-26T20:57:55.610Z,2.70
2018-07-26T21:00:23.223Z,2.93
2018-07-26T21:02:50.968Z,3.07
2018-07-26T21:05:18.588Z,2.83
2018-07-26T21:07:46.215Z,2.37
2018-07-26T21:10:13.916Z,2.20
2018-07-26T21:13:02.113Z,2.23
2018-07-26T21:15:32.031Z,2.80
2018-07-26T21:17:59.853Z,2.90
2018-07-26T21:20:27.545Z,2.30
2018-07-26T21:22:55.132Z,2.63
2018-07-26T21:25:22.932Z,2.83
2018-07-26T21:28:04.041Z,2.90
2018-07-26T21:30:31.636Z,2.60
2018-07-26T21:32:59.428Z,2.67
2018-07-26T21:35:27.013Z,2.27
2018-07-26T21:37:54.593Z,3.30
2018-07-26T21:40:22.156Z,2.50
2018-07-26T21:42:49.868Z,2.90
2018-07-26T21:45:17.468Z,2.20
2018-07-26T21:47:45.062Z,2.17
2018-07-26T21:50:12.628Z,2.17
2018-07-26T21:52:40.232Z,2.20
2018-07-26T21:55:07.845Z,2.20
2018-07-26T21:57:35.461Z,1.83
2018-07-26T22:00:08.001Z,2.37
2018-07-26T22:02:35.631Z,2.57
2018-07-26T22:05:03.433Z,1.87
2018-07-26T22:07:30.974Z,1.97
2018-07-26T22:09:58.662Z,2.40
2018-07-26T22:12:26.344Z,2.10
2018-07-26T22:14:53.947Z,2.40
2018-07-26T22:17:21.581Z,2.30
2018-07-26T22:19:49.169Z,2.63
2018-07-26T22:22:16.837Z,2.00
2018-07-26T22:24:44.524Z,2.20
2018-07-26T22:27:12.093Z,2.60
2018-07-26T22:29:40.673Z,2.20
2018-07-26T22:32:08.320Z,2.40
2018-07-26T22:34:35.933Z,2.00
2018-07-26T22:37:03.666Z,2.40
2018-07-26T22:39:31.251Z,2.03
2018-07-26T22:41:58.801Z,2.20
2018-07-26T22:44:26.448Z,2.30
2018-07-26T22:46:54.039Z,2.23
2018-07-26T22:49:21.628Z,2.67
2018-07-26T22:51:49.191Z,3.00
2018-07-26T22:54:16.819Z,2.60
2018-07-26T22:56:44.409Z,2.77
2018-07-26T22:59:12.005Z,2.57
2018-07-26T23:01:39.630Z,3.03
2018-07-26T23:04:07.218Z,3.07
2018-07-26T23:06:34.796Z,2.30
2018-07-26T23:09:02.516Z,2.57
2018-07-26T23:11:30.161Z,2.27
2018-07-26T23:13:57.893Z,2.73
2018-07-26T23:16:25.488Z,2.20
2018-07-26T23:18:53.305Z,2.33
2018-07-26T23:21:20.933Z,2.40
2018-07-26T23:23:48.529Z,2.40
2018-07-26T23:26:16.208Z,2.27
2018-07-26T23:28:43.840Z,2.30
2018-07-26T23:31:11.621Z,1.77
2018-07-26T23:33:39.224Z,2.23
2018-07-26T23:36:07.677Z,2.53
2018-07-26T23:38:35.293Z,2.30
2018-07-26T23:41:02.867Z,2.00
2018-07-26T23:43:30.533Z,1.97
2018-07-26T23:45:58.161Z,1.93
2018-07-26T23:48:25.774Z,1.47
2018-07-26T23:50:53.918Z,1.50
2018-07-26T23:53:21.568Z,2.13
2018-07-26T23:55:49.183Z,1.80
2018-07-26T23:58:16.777Z,1.43
